Time;durP1;ratioP1;P1;durP2;ratioP2;P2;SDS_P1;SDS_P2;PMS_P1;PMS_P2;Temp;Humidity;BMP_temperature;BMP_pressure;BME280_temperature;BME280_humidity;BME280_pressure;Samples;Min_cycle;Max_cycle;Signal;HPM_P1;HPM_P2
2022/03/06 00:01:17;;;;;;;7.43;3.00;;;;;;;2.76;61.53;102744.41;5033428;28;20201;-71
2022/03/06 00:03:44;;;;;;;6.00;3.00;;;;;;;2.72;61.43;102744.91;5022215;28;20209;-71
2022/03/06 00:06:09;;;;;;;4.60;2.87;;;;;;;2.72;61.43;102740.72;5032068;28;20752;-71
2022/03/06 00:08:35;;;;;;;4.57;2.80;;;;;;;2.68;61.56;102743.78;5051191;28;20262;-71
2022/03/06 00:11:01;;;;;;;4.73;3.00;;;;;;;2.69;61.21;102747.19;5032749;28;20186;-72
2022/03/06 00:13:26;;;;;;;4.47;3.27;;;;;;;2.68;62.50;102750.47;5032050;28;20684;-72
2022/03/06 00:15:52;;;;;;;4.30;2.73;;;;;;;2.67;62.17;102753.78;5046272;28;20222;-71
2022/03/06 00:18:17;;;;;;;4.10;2.90;;;;;;;2.63;61.43;102750.13;5013118;28;20218;-72
2022/03/06 00:20:43;;;;;;;7.07;3.50;;;;;;;2.67;61.39;102748.72;5013293;28;20194;-72
2022/03/06 00:23:08;;;;;;;7.23;3.33;;;;;;;2.68;62.55;102743.78;5031342;28;20221;-72
2022/03/06 00:25:34;;;;;;;5.13;3.00;;;;;;;2.74;63.34;102739.22;5031300;28;20216;-72
2022/03/06 00:28:00;;;;;;;6.20;3.10;;;;;;;2.68;62.64;102745.44;5031011;28;20214;-72
2022/03/06 00:30:25;;;;;;;7.27;3.30;;;;;;;2.60;63.55;102751.50;5030912;28;20195;-72
2022/03/06 00:32:50;;;;;;;6.27;3.60;;;;;;;2.52;63.48;102755.06;5015103;28;20283;-72
2022/03/06 00:35:16;;;;;;;7.63;2.80;;;;;;;2.52;63.95;102753.41;5025532;28;20218;-73
2022/03/06 00:37:41;;;;;;;4.77;2.70;;;;;;;2.49;63.72;102748.09;5043384;28;20271;-71
2022/03/06 00:40:09;;;;;;;4.17;2.70;;;;;;;2.46;65.13;102750.38;5031606;28;20725;-72
2022/03/06 00:42:34;;;;;;;6.17;2.90;;;;;;;2.43;64.39;102752.66;5031827;28;20214;-74
2022/03/06 00:45:00;;;;;;;6.50;2.70;;;;;;;2.47;64.50;102748.72;5012353;28;20900;-72
2022/03/06 00:47:25;;;;;;;5.27;3.27;;;;;;;2.49;64.08;102749.75;5030209;28;20600;-73
2022/03/06 00:49:51;;;;;;;4.50;2.90;;;;;;;2.44;64.23;102744.31;5037910;28;20242;-70
2022/03/06 00:52:16;;;;;;;3.50;2.83;;;;;;;2.43;64.43;102745.06;5032186;28;20222;-71
2022/03/06 00:54:42;;;;;;;4.13;2.77;;;;;;;2.41;64.40;102743.19;5030403;28;20233;-72
2022/03/06 00:57:07;;;;;;;4.80;2.90;;;;;;;2.43;63.35;102746.72;5029978;28;20251;-73
2022/03/06 00:59:35;;;;;;;4.40;2.93;;;;;;;2.37;64.53;102747.09;5030067;28;20190;-71
2022/03/06 01:02:03;;;;;;;7.97;3.07;;;;;;;2.38;64.21;102740.38;5030399;28;20202;-71
2022/03/06 01:04:29;;;;;;;4.30;3.10;;;;;;;2.35;64.48;102746.06;5030302;28;20171;-71
2022/03/06 01:06:54;;;;;;;5.80;3.40;;;;;;;2.36;65.21;102749.50;5012609;28;20653;-74
2022/03/06 01:09:19;;;;;;;6.30;3.30;;;;;;;2.32;64.24;102747.47;5030150;28;20952;-72
2022/03/06 01:11:45;;;;;;;5.93;3.47;;;;;;;2.28;64.66;102750.50;5012390;28;20190;-72
2022/03/06 01:14:10;;;;;;;6.17;3.10;;;;;;;2.28;64.38;102751.41;5044597;28;20237;-73
2022/03/06 01:16:35;;;;;;;6.83;3.33;;;;;;;2.31;64.80;102753.28;5028610;28;20217;-71
2022/03/06 01:19:01;;;;;;;4.13;3.17;;;;;;;2.36;63.60;102749.50;5030226;28;20218;-74
2022/03/06 01:21:26;;;;;;;8.30;4.00;;;;;;;2.40;64.13;102749.88;5030026;28;20287;-71
2022/03/06 01:23:51;;;;;;;6.17;3.77;;;;;;;2.36;64.85;102746.97;5033541;28;20237;-71
2022/03/06 01:26:18;;;;;;;7.20;3.37;;;;;;;2.31;64.23;102756.72;5049872;28;20189;-71
2022/03/06 01:28:43;;;;;;;5.53;3.63;;;;;;;2.28;64.73;102763.13;5049887;28;20849;-71
2022/03/06 01:31:08;;;;;;;5.47;3.50;;;;;;;2.29;65.24;102768.31;5049764;28;20178;-72
2022/03/06 01:33:34;;;;;;;4.90;3.13;;;;;;;2.27;64.87;102763.91;5033450;28;20945;-72
2022/03/06 01:35:59;;;;;;;5.47;3.40;;;;;;;2.27;64.89;102767.31;5029956;28;20197;-72
2022/03/06 01:38:24;;;;;;;4.70;3.33;;;;;;;2.20;65.30;102769.22;5029610;28;20201;-71
2022/03/06 01:40:49;;;;;;;8.27;3.53;;;;;;;2.21;66.06;102769.31;5029760;28;20213;-72
2022/03/06 01:43:15;;;;;;;5.53;2.90;;;;;;;2.17;65.57;102769.84;5029664;28;20210;-71
2022/03/06 01:45:40;;;;;;;5.03;2.90;;;;;;;2.13;65.79;102766.91;5029333;28;20209;-74
2022/03/06 01:48:08;;;;;;;6.33;3.00;;;;;;;2.11;65.37;102769.31;5029690;28;20197;-71
2022/03/06 01:50:34;;;;;;;5.80;3.00;;;;;;;2.14;64.73;102767.06;5029762;28;20673;-71
2022/03/06 01:53:02;;;;;;;5.30;3.53;;;;;;;2.12;65.03;102766.03;5029509;28;20229;-72
2022/03/06 01:55:28;;;;;;;6.20;3.30;;;;;;;2.09;66.23;102770.84;5012933;28;20210;-72
2022/03/06 01:57:55;;;;;;;4.37;3.27;;;;;;;2.10;66.02;102767.56;5029532;28;20185;-73
2022/03/06 02:00:27;;;;;;;4.57;3.23;;;;;;;2.02;66.00;102767.69;5029495;28;20207;-72
2022/03/06 02:02:52;;;;;;;7.60;3.40;;;;;;;2.08;66.56;102761.50;5046921;28;20296;-72
2022/03/06 02:05:18;;;;;;;7.17;3.40;;;;;;;2.05;66.92;102758.72;5015011;28;20306;-73
2022/03/06 02:07:43;;;;;;;3.77;2.67;;;;;;;2.04;66.98;102754.41;5029428;28;20189;-70
2022/03/06 02:10:09;;;;;;;5.50;3.40;;;;;;;2.01;66.48;102753.25;5029057;28;20194;-72
2022/03/06 02:12:35;;;;;;;6.50;2.97;;;;;;;2.02;67.13;102755.06;5037539;28;20201;-71
2022/03/06 02:15:04;;;;;;;4.70;2.77;;;;;;;2.03;66.49;102754.28;5011698;28;20684;-73
2022/03/06 02:17:29;;;;;;;4.07;3.17;;;;;;;2.00;66.45;102759.97;5029598;28;20182;-70
2022/03/06 02:20:00;;;;;;;4.23;2.80;;;;;;;1.98;67.40;102753.88;5029821;28;20205;-72
2022/03/06 02:22:28;;;;;;;5.93;3.07;;;;;;;1.97;67.26;102752.13;5029760;28;20218;-71
2022/03/06 02:24:55;;;;;;;7.50;3.20;;;;;;;1.95;67.36;102752.75;5029537;28;20178;-71
2022/03/06 02:27:21;;;;;;;4.53;3.00;;;;;;;1.95;67.02;102755.28;5011735;28;20954;-71
2022/03/06 02:29:47;;;;;;;3.10;2.47;;;;;;;1.96;66.90;102752.88;5011955;28;20198;-71
2022/03/06 02:32:15;;;;;;;6.40;3.07;;;;;;;1.93;67.94;102745.03;5011655;28;20217;-71
2022/03/06 02:34:42;;;;;;;5.17;3.30;;;;;;;1.90;67.76;102754.00;5029234;28;20703;-71
2022/03/06 02:37:11;;;;;;;5.23;2.90;;;;;;;1.89;67.50;102743.00;5029105;28;20313;-71
2022/03/06 02:39:36;;;;;;;5.70;3.73;;;;;;;1.92;68.08;102744.94;5029421;28;20175;-71
2022/03/06 02:42:03;;;;;;;5.87;3.13;;;;;;;1.93;68.57;102737.47;5029317;28;20209;-72
2022/03/06 02:44:29;;;;;;;5.00;2.90;;;;;;;1.89;68.56;102740.47;5028795;28;20178;-72
2022/03/06 02:46:55;;;;;;;4.37;2.87;;;;;;;1.88;69.07;102736.19;5028997;28;20190;-71
2022/03/06 02:49:21;;;;;;;5.23;3.27;;;;;;;1.85;69.15;102740.13;5011550;28;20193;-73
2022/03/06 02:51:46;;;;;;;4.50;3.00;;;;;;;1.82;68.75;102734.78;5029244;28;20197;-71
2022/03/06 02:54:14;;;;;;;5.60;2.90;;;;;;;1.86;68.70;102726.72;5028893;28;20211;-72
2022/03/06 02:56:40;;;;;;;6.03;3.27;;;;;;;1.77;69.33;102731.00;5011351;28;20274;-71
2022/03/06 02:59:07;;;;;;;5.63;3.10;;;;;;;1.80;69.02;102726.22;5029057;28;20166;-75
2022/03/06 03:01:38;;;;;;;5.77;3.00;;;;;;;1.81;69.51;102726.34;5029196;28;20680;-71
2022/03/06 03:04:04;;;;;;;5.23;3.10;;;;;;;1.81;69.59;102722.94;5030276;28;20701;-71
2022/03/06 03:06:30;;;;;;;4.10;3.20;;;;;;;1.73;70.67;102719.78;5032174;28;20240;-74
2022/03/06 03:08:56;;;;;;;4.37;3.00;;;;;;;1.72;69.74;102712.97;5014653;28;20207;-73
2022/03/06 03:11:21;;;;;;;4.40;2.83;;;;;;;1.74;70.47;102725.72;5032356;28;20193;-72
2022/03/06 03:13:46;;;;;;;9.30;3.00;;;;;;;1.73;70.26;102722.28;5032325;28;20607;-74
2022/03/06 03:16:12;;;;;;;5.60;3.00;;;;;;;1.71;70.79;102718.78;5034557;28;20183;-71
2022/03/06 03:18:37;;;;;;;6.13;3.10;;;;;;;1.72;70.53;102718.00;5050408;28;20197;-71
2022/03/06 03:21:02;;;;;;;6.13;2.93;;;;;;;1.75;71.06;102724.94;5032474;28;20183;-73
2022/03/06 03:23:28;;;;;;;5.27;2.70;;;;;;;1.73;70.87;102723.91;5014607;28;20233;-72
2022/03/06 03:25:54;;;;;;;4.53;2.70;;;;;;;1.69;70.91;102729.50;5032284;28;20225;-72
2022/03/06 03:28:19;;;;;;;4.93;2.87;;;;;;;1.70;71.12;102727.06;5009618;28;20190;-73
2022/03/06 03:30:44;;;;;;;5.37;2.73;;;;;;;1.69;70.58;102737.94;5032732;28;20273;-71
2022/03/06 03:33:09;;;;;;;5.37;2.60;;;;;;;1.67;71.61;102741.97;5017501;28;20727;-71
2022/03/06 03:35:35;;;;;;;5.53;3.40;;;;;;;1.66;71.23;102737.66;5046469;28;20673;-76
2022/03/06 03:38:00;;;;;;;5.03;2.70;;;;;;;1.66;70.33;102746.88;5019625;28;20205;-71
2022/03/06 03:40:26;;;;;;;4.93;2.67;;;;;;;1.65;71.13;102743.47;5032145;28;20216;-72
2022/03/06 03:42:51;;;;;;;4.00;2.57;;;;;;;1.65;70.11;102746.00;5031997;28;20213;-72
2022/03/06 03:45:16;;;;;;;5.13;3.13;;;;;;;1.60;71.37;102739.69;5031616;28;20171;-71
2022/03/06 03:47:42;;;;;;;5.10;2.93;;;;;;;1.61;71.04;102740.56;5030443;28;20182;-71
2022/03/06 03:50:08;;;;;;;5.07;2.80;;;;;;;1.60;70.60;102753.97;5030411;28;20190;-73
2022/03/06 03:52:33;;;;;;;4.20;2.63;;;;;;;1.55;70.90;102756.06;5031740;28;20210;-71
2022/03/06 03:54:59;;;;;;;6.17;2.53;;;;;;;1.54;71.20;102753.41;5026038;28;20201;-71
2022/03/06 03:57:24;;;;;;;5.43;3.60;;;;;;;1.57;71.29;102758.72;5039374;28;20190;-71
2022/03/06 03:59:50;;;;;;;5.33;3.17;;;;;;;1.56;71.89;102752.78;5031461;28;20830;-71
2022/03/06 04:02:16;;;;;;;5.87;3.17;;;;;;;1.58;71.34;102750.41;5013892;28;20213;-71
2022/03/06 04:04:41;;;;;;;5.03;3.73;;;;;;;1.57;71.24;102761.25;5031496;28;20637;-72
2022/03/06 04:07:06;;;;;;;6.53;3.40;;;;;;;1.58;71.52;102751.28;5017494;28;20228;-71
2022/03/06 04:09:32;;;;;;;4.67;3.30;;;;;;;1.57;72.12;102756.22;5051186;28;20186;-72
2022/03/06 04:11:57;;;;;;;6.07;3.30;;;;;;;1.58;71.27;102755.44;5036608;28;20549;-71
2022/03/06 04:14:23;;;;;;;6.27;3.37;;;;;;;1.56;72.54;102757.81;5031006;28;20225;-71
2022/03/06 04:16:48;;;;;;;4.70;3.50;;;;;;;1.53;72.40;102749.13;5030042;28;20269;-71
2022/03/06 04:19:14;;;;;;;5.10;3.47;;;;;;;1.49;72.67;102745.47;5031056;28;20259;-72
2022/03/06 04:21:39;;;;;;;4.63;3.30;;;;;;;1.47;73.03;102749.47;5031104;28;20194;-71
2022/03/06 04:24:05;;;;;;;6.40;3.87;;;;;;;1.49;72.64;102754.66;5031060;28;20209;-70
2022/03/06 04:26:31;;;;;;;5.33;3.60;;;;;;;1.50;72.70;102751.38;5013317;28;20221;-71
2022/03/06 04:28:56;;;;;;;6.37;3.33;;;;;;;1.51;72.21;102754.03;5013005;28;20304;-70
2022/03/06 04:31:21;;;;;;;9.27;3.90;;;;;;;1.56;72.18;102751.91;5013247;28;20648;-71
2022/03/06 04:33:46;;;;;;;5.20;3.80;;;;;;;1.50;72.15;102756.41;5030622;28;20568;-73
2022/03/06 04:36:12;;;;;;;7.40;4.07;;;;;;;1.49;72.68;102755.56;5030884;28;20731;-71
2022/03/06 04:38:39;;;;;;;6.00;3.80;;;;;;;1.50;71.40;102757.31;5012911;28;20194;-73
2022/03/06 04:41:04;;;;;;;6.23;4.20;;;;;;;1.50;71.33;102757.31;5030837;28;20201;-71
2022/03/06 04:43:30;;;;;;;4.33;3.40;;;;;;;1.51;72.13;102758.22;5030531;28;20198;-73
2022/03/06 04:45:55;;;;;;;5.80;3.47;;;;;;;1.47;72.46;102757.03;5013001;28;20573;-71
2022/03/06 04:48:20;;;;;;;4.20;3.10;;;;;;;1.51;71.82;102764.13;5035546;28;20221;-73
2022/03/06 04:50:46;;;;;;;4.93;3.50;;;;;;;1.49;72.95;102774.84;5032833;28;20223;-74
2022/03/06 04:53:11;;;;;;;8.03;4.13;;;;;;;1.50;72.09;102772.47;5029421;28;20301;-70
2022/03/06 04:55:37;;;;;;;7.00;3.70;;;;;;;1.51;72.48;102778.41;5029131;28;20226;-71
2022/03/06 04:58:02;;;;;;;5.23;3.33;;;;;;;1.45;72.86;102781.28;5028844;28;20233;-73
2022/03/06 05:00:27;;;;;;;5.83;3.80;;;;;;;1.42;72.92;102773.44;5029312;28;20202;-71
2022/03/06 05:02:53;;;;;;;6.20;3.80;;;;;;;1.44;71.88;102771.94;5030193;28;20210;-71
2022/03/06 05:05:19;;;;;;;5.43;3.60;;;;;;;1.45;72.18;102772.81;5030213;28;20182;-73
2022/03/06 05:07:44;;;;;;;6.80;3.50;;;;;;;1.49;71.82;102772.31;5049696;28;20193;-71
2022/03/06 05:10:09;;;;;;;7.53;3.80;;;;;;;1.49;71.93;102774.84;5028398;28;20221;-71
2022/03/06 05:12:36;;;;;;;8.00;3.93;;;;;;;1.44;71.46;102773.56;5014595;28;20237;-72
2022/03/06 05:15:02;;;;;;;6.50;3.20;;;;;;;1.51;71.74;102774.22;5029979;28;20352;-71
2022/03/06 05:17:27;;;;;;;7.17;3.83;;;;;;;1.51;71.03;102774.22;5029796;28;20252;-73
2022/03/06 05:19:52;;;;;;;5.70;3.37;;;;;;;1.48;71.67;102776.50;5030072;28;20281;-71
2022/03/06 05:22:18;;;;;;;5.40;3.20;;;;;;;1.49;71.06;102772.31;5012229;28;20579;-72
2022/03/06 05:24:43;;;;;;;5.13;3.07;;;;;;;1.44;72.46;102774.47;5030079;28;20583;-71
2022/03/06 05:27:08;;;;;;;6.03;3.67;;;;;;;1.47;71.50;102776.38;5029635;28;20645;-72
2022/03/06 05:29:34;;;;;;;5.10;3.50;;;;;;;1.49;71.36;102772.31;5029960;28;20564;-71
2022/03/06 05:31:59;;;;;;;4.43;3.27;;;;;;;1.45;71.50;102771.19;5012118;28;20568;-72
2022/03/06 05:34:24;;;;;;;5.57;3.70;;;;;;;1.49;70.99;102769.78;5029781;28;20273;-73
2022/03/06 05:36:50;;;;;;;5.70;3.13;;;;;;;1.49;70.98;102768.16;5011905;28;20194;-72
2022/03/06 05:39:15;;;;;;;5.50;3.80;;;;;;;1.48;70.91;102779.03;5029646;28;20182;-72
2022/03/06 05:41:40;;;;;;;4.17;3.40;;;;;;;1.51;70.76;102778.41;5049592;28;20182;-71
2022/03/06 05:44:06;;;;;;;5.23;3.13;;;;;;;1.52;70.70;102772.59;5049543;28;20206;-72
2022/03/06 05:46:31;;;;;;;4.47;3.53;;;;;;;1.48;71.05;102773.97;5049521;28;20276;-73
2022/03/06 05:48:56;;;;;;;5.13;3.27;;;;;;;1.52;71.50;102767.56;5015131;28;20281;-71
2022/03/06 05:51:22;;;;;;;4.40;3.37;;;;;;;1.52;70.93;102770.06;5026342;28;20196;-72
2022/03/06 05:53:48;;;;;;;4.77;3.23;;;;;;;1.51;71.04;102769.19;5040291;28;20209;-73
2022/03/06 05:56:13;;;;;;;5.67;3.33;;;;;;;1.52;72.19;102772.59;5049468;28;20178;-70
2022/03/06 05:58:38;;;;;;;4.37;3.37;;;;;;;1.52;72.36;102770.06;5049325;28;20554;-72
2022/03/06 06:01:04;;;;;;;8.77;3.40;;;;;;;1.51;71.41;102781.78;5049372;28;20193;-71
2022/03/06 06:03:29;;;;;;;4.40;3.17;;;;;;;1.52;71.39;102778.50;5049481;28;20216;-71
2022/03/06 06:05:54;;;;;;;4.73;3.57;;;;;;;1.47;72.14;102782.28;5020829;28;20190;-74
2022/03/06 06:08:20;;;;;;;5.40;3.70;;;;;;;1.53;71.83;102786.97;5025616;28;20289;-72
2022/03/06 06:10:45;;;;;;;5.67;3.10;;;;;;;1.52;72.14;102793.66;5014854;28;20186;-71
2022/03/06 06:13:14;;;;;;;5.00;2.90;;;;;;;1.54;71.99;102784.59;5031436;28;20205;-73
2022/03/06 06:15:43;;;;;;;5.63;3.40;;;;;;;1.54;71.87;102787.13;5049251;28;20263;-72
2022/03/06 06:18:08;;;;;;;6.20;3.70;;;;;;;1.57;72.24;102786.50;5049141;28;20181;-71
2022/03/06 06:20:36;;;;;;;7.50;3.60;;;;;;;1.58;71.92;102790.78;5031681;28;20678;-72
2022/03/06 06:23:02;;;;;;;7.00;3.70;;;;;;;1.58;71.79;102790.78;5030350;28;20202;-73
2022/03/06 06:25:27;;;;;;;5.40;3.53;;;;;;;1.58;71.79;102794.19;5029165;28;20578;-72
2022/03/06 06:27:53;;;;;;;5.33;3.20;;;;;;;1.57;70.92;102791.53;5030305;28;20182;-71
2022/03/06 06:30:18;;;;;;;4.93;3.20;;;;;;;1.59;71.58;102790.00;5049144;28;20193;-72
2022/03/06 06:32:43;;;;;;;6.90;3.10;;;;;;;1.57;70.93;102794.97;5041146;28;20214;-72
2022/03/06 06:35:09;;;;;;;4.73;2.63;;;;;;;1.61;71.68;102796.09;5039511;28;20213;-72
2022/03/06 06:37:34;;;;;;;4.13;2.60;;;;;;;1.66;70.71;102795.72;5029785;28;20204;-73
2022/03/06 06:40:00;;;;;;;5.07;2.90;;;;;;;1.63;71.94;102803.06;5013916;28;20205;-73
2022/03/06 06:42:26;;;;;;;5.27;2.70;;;;;;;1.62;71.62;102803.81;5047130;28;20244;-72
2022/03/06 06:44:51;;;;;;;4.97;3.10;;;;;;;1.59;72.60;102805.16;5051830;28;20182;-71
2022/03/06 06:47:17;;;;;;;5.83;3.00;;;;;;;1.62;71.87;102805.44;5051359;28;20194;-71
2022/03/06 06:49:42;;;;;;;4.10;3.30;;;;;;;1.69;72.40;102805.22;5049662;28;20210;-73
2022/03/06 06:52:07;;;;;;;4.03;2.93;;;;;;;1.67;71.21;102806.72;5032728;28;20255;-73
2022/03/06 06:54:32;;;;;;;4.50;3.10;;;;;;;1.69;71.91;102803.56;5032644;28;20759;-71
2022/03/06 06:56:58;;;;;;;6.63;3.43;;;;;;;1.73;71.80;102804.69;5032524;28;20336;-71
2022/03/06 06:59:23;;;;;;;5.67;3.07;;;;;;;1.69;72.20;102801.03;4998330;28;20602;-71
2022/03/06 07:01:48;;;;;;;4.57;3.17;;;;;;;1.66;72.42;102803.28;5033731;28;20924;-71
2022/03/06 07:04:14;;;;;;;5.37;3.20;;;;;;;1.71;72.00;102809.66;5052436;28;20221;-71
2022/03/06 07:06:39;;;;;;;5.80;2.97;;;;;;;1.75;71.49;102809.13;5052632;28;20204;-71
2022/03/06 07:09:05;;;;;;;4.30;3.07;;;;;;;1.80;71.65;102812.97;5052350;28;20205;-71
2022/03/06 07:11:31;;;;;;;4.90;3.13;;;;;;;1.80;72.11;102812.06;5052564;28;20193;-71
2022/03/06 07:13:56;;;;;;;4.40;3.10;;;;;;;1.85;71.76;102819.28;5034452;28;20241;-71
2022/03/06 07:16:21;;;;;;;5.80;3.40;;;;;;;1.82;71.75;102819.00;5052555;28;20217;-71
2022/03/06 07:18:47;;;;;;;5.77;3.20;;;;;;;1.82;71.24;102823.16;5034374;28;20217;-73
2022/03/06 07:21:12;;;;;;;5.23;3.33;;;;;;;1.84;70.67;102827.59;5052671;28;20216;-71
2022/03/06 07:23:37;;;;;;;5.03;3.20;;;;;;;1.90;71.11;102825.63;5041950;28;20202;-72
2022/03/06 07:26:03;;;;;;;6.07;3.10;;;;;;;1.87;70.90;102827.88;5032508;28;20205;-71
2022/03/06 07:28:29;;;;;;;3.70;2.83;;;;;;;1.87;nan;102825.34;5014674;28;20657;-71
2022/03/06 07:30:54;;;;;;;5.10;3.27;;;;;;;1.91;69.91;102832.44;5014621;28;20336;-72
2022/03/06 07:33:20;;;;;;;5.77;3.13;;;;;;;1.97;69.29;102832.94;5032127;28;20226;-75
2022/03/06 07:35:45;;;;;;;6.03;2.87;;;;;;;1.97;69.86;102834.59;5032193;28;20210;-71
2022/03/06 07:38:10;;;;;;;4.30;3.00;;;;;;;2.00;69.24;102838.25;5030532;28;20225;-72
2022/03/06 07:40:36;;;;;;;3.43;3.00;;;;;;;2.02;69.94;102840.94;5031910;28;20214;-70
2022/03/06 07:43:02;;;;;;;6.20;2.80;;;;;;;2.07;69.37;102844.72;5031701;28;20288;-71
2022/03/06 07:45:27;;;;;;;3.73;3.03;;;;;;;2.08;69.10;102841.44;5014089;28;20250;-71
2022/03/06 07:47:53;;;;;;;4.60;3.20;;;;;;;2.13;69.42;102846.13;5031538;28;20264;-71
2022/03/06 07:50:18;;;;;;;6.03;3.33;;;;;;;2.16;68.29;102835.41;5022219;28;20196;-71
2022/03/06 07:52:44;;;;;;;3.87;3.43;;;;;;;2.16;68.54;102836.25;5033707;28;20201;-70
2022/03/06 07:55:10;;;;;;;3.43;2.83;;;;;;;2.16;68.17;102833.75;5051738;28;20299;-72
2022/03/06 07:57:35;;;;;;;4.00;2.53;;;;;;;2.22;68.05;102831.75;5051317;28;20648;-74
2022/03/06 08:00:02;;;;;;;4.90;2.80;;;;;;;2.22;67.29;102826.69;5051319;28;20224;-71
2022/03/06 08:02:34;;;;;;;3.60;3.30;;;;;;;2.24;67.73;102840.31;5045089;28;20649;-72
2022/03/06 08:05:00;;;;;;;4.83;3.47;;;;;;;2.30;67.51;102839.97;5031380;28;20190;-73
2022/03/06 08:07:25;;;;;;;4.90;3.07;;;;;;;2.31;67.58;102842.63;5031128;28;20232;-71
2022/03/06 08:09:50;;;;;;;3.20;2.83;;;;;;;2.42;67.54;102835.91;5013477;28;20252;-71
2022/03/06 08:12:16;;;;;;;4.43;3.17;;;;;;;2.41;66.34;102836.69;5013437;28;20214;-71
2022/03/06 08:14:41;;;;;;;5.00;3.20;;;;;;;2.46;66.31;102836.31;5030708;28;20211;-72
2022/03/06 08:17:06;;;;;;;4.70;3.17;;;;;;;2.54;66.79;102832.81;5013233;28;20195;-74
2022/03/06 08:19:32;;;;;;;4.23;3.13;;;;;;;2.60;65.64;102833.28;5031045;28;20187;-71
2022/03/06 08:21:57;;;;;;;4.80;2.97;;;;;;;2.65;65.83;102833.66;5030859;28;20285;-73
2022/03/06 08:24:23;;;;;;;3.47;3.13;;;;;;;2.64;64.88;102837.84;5013329;28;20225;-71
2022/03/06 08:26:48;;;;;;;5.20;3.30;;;;;;;2.73;64.55;102836.09;5031045;28;20236;-72
2022/03/06 08:29:14;;;;;;;6.93;3.30;;;;;;;2.78;64.59;102847.47;5013136;28;20657;-72
2022/03/06 08:31:39;;;;;;;5.50;4.17;;;;;;;2.82;63.87;102857.06;4999083;28;20351;-71
2022/03/06 08:34:04;;;;;;;5.50;4.20;;;;;;;2.94;61.79;102853.00;5038034;28;20310;-71
2022/03/06 08:36:31;;;;;;;6.77;3.50;;;;;;;2.93;62.30;102858.81;5031941;28;20552;-73
2022/03/06 08:38:57;;;;;;;4.77;3.63;;;;;;;3.04;62.07;102854.66;5032312;28;20622;-72
2022/03/06 08:41:22;;;;;;;4.33;3.10;;;;;;;3.08;61.93;102860.06;5036423;28;20210;-73
2022/03/06 08:43:47;;;;;;;5.20;2.90;;;;;;;3.12;60.61;102858.69;5012325;28;20253;-72
2022/03/06 08:46:13;;;;;;;5.73;3.47;;;;;;;3.18;61.68;102854.13;5030559;28;20206;-72
2022/03/06 08:48:38;;;;;;;4.33;3.00;;;;;;;3.31;60.21;102855.22;5017630;28;20253;-73
2022/03/06 08:51:05;;;;;;;4.30;3.30;;;;;;;3.37;60.04;102858.25;5022118;28;20290;-70
2022/03/06 08:53:31;;;;;;;6.40;3.57;;;;;;;3.30;59.69;102863.56;5049997;28;20256;-71
2022/03/06 08:55:56;;;;;;;2.90;2.70;;;;;;;3.48;59.22;102865.03;5025552;28;20285;-71
2022/03/06 08:58:22;;;;;;;4.27;2.80;;;;;;;3.63;59.57;102866.25;5029452;28;20822;-71
2022/03/06 09:00:47;;;;;;;5.57;3.60;;;;;;;3.72;60.30;102866.13;5029675;28;20213;-71
2022/03/06 09:03:12;;;;;;;5.03;3.10;;;;;;;3.64;58.94;102851.97;5032965;28;20248;-71
2022/03/06 09:05:40;;;;;;;5.73;2.93;;;;;;;3.93;58.26;102850.06;5035963;28;20641;-73
2022/03/06 09:08:09;;;;;;;3.87;2.63;;;;;;;3.97;57.92;102852.06;5028401;28;20205;-73
2022/03/06 09:10:36;;;;;;;4.63;3.40;;;;;;;4.38;60.59;102851.91;5030657;28;20273;-73
2022/03/06 09:13:01;;;;;;;4.00;2.63;;;;;;;4.59;56.32;102843.41;5029581;28;20206;-73
2022/03/06 09:15:27;;;;;;;6.07;2.97;;;;;;;4.50;55.37;102850.31;5029221;28;20589;-72
2022/03/06 09:17:52;;;;;;;3.63;2.90;;;;;;;8.80;46.25;102822.03;5028619;28;20642;-71
2022/03/06 09:20:18;;;;;;;3.73;2.70;;;;;;;14.24;33.65;102803.81;5029854;28;20197;-72
2022/03/06 09:22:43;;;;;;;3.73;2.70;;;;;;;15.74;30.77;102795.09;5012005;28;20210;-74
2022/03/06 09:25:09;;;;;;;3.10;2.70;;;;;;;17.10;28.96;102782.47;5011702;28;20197;-72
2022/03/06 09:27:35;;;;;;;4.47;2.40;;;;;;;17.32;27.43;102787.31;5029735;28;20175;-72
2022/03/06 09:30:01;;;;;;;4.47;2.90;;;;;;;16.35;28.61;102790.84;5029533;28;20197;-72
2022/03/06 09:32:26;;;;;;;2.00;1.90;;;;;;;18.77;24.48;102780.00;5029735;28;20210;-72
2022/03/06 09:34:51;;;;;;;3.17;2.57;;;;;;;20.09;23.33;102781.09;5029577;28;20316;-73
2022/03/06 09:37:17;;;;;;;2.80;2.57;;;;;;;19.35;23.94;102795.66;5029484;28;20226;-72
2022/03/06 09:39:42;;;;;;;2.77;2.57;;;;;;;20.27;22.71;102779.56;5029779;28;20232;-73
2022/03/06 09:42:07;;;;;;;2.20;2.10;;;;;;;20.37;22.05;102785.75;5029642;28;20191;-72
2022/03/06 09:44:36;;;;;;;2.33;2.13;;;;;;;20.88;21.77;102783.66;5029980;28;20189;-72
2022/03/06 09:47:04;;;;;;;2.70;1.80;;;;;;;19.44;23.17;102785.41;5029527;28;20197;-72
2022/03/06 09:49:29;;;;;;;2.67;2.40;;;;;;;20.46;22.03;102788.47;5029310;28;20186;-72
2022/03/06 09:51:56;;;;;;;2.83;2.53;;;;;;;19.32;22.68;102797.34;5043434;28;20281;-73
2022/03/06 09:54:22;;;;;;;2.90;2.33;;;;;;;18.79;24.02;102801.63;5049284;28;20334;-72
2022/03/06 09:56:47;;;;;;;3.30;2.60;;;;;;;13.01;31.38;102813.50;5047918;28;20194;-73
2022/03/06 09:59:13;;;;;;;3.03;2.13;;;;;;;11.26;33.25;102828.63;5029160;28;20241;-73
2022/03/06 10:01:38;;;;;;;3.63;2.40;;;;;;;11.20;35.64;102830.88;5029837;28;20217;-73
2022/03/06 10:04:24;;;;;;;2.90;2.60;;;;;;;10.28;35.64;102826.97;5029301;28;21115;-72
2022/03/06 10:07:06;;;;;;;3.07;2.50;;;;;;;12.37;33.55;102833.00;5028079;28;20744;-71
2022/03/06 10:09:46;;;;;;;5.67;4.27;;;;;;;18.97;24.10;102799.34;5029207;28;20220;-73
2022/03/06 10:12:22;;;;;;;2.57;2.07;;;;;;;13.27;29.73;102825.72;5027640;28;20240;-73
2022/03/06 10:14:49;;;;;;;3.30;3.00;;;;;;;18.66;24.36;102807.47;5032052;28;20312;-74
2022/03/06 10:17:17;;;;;;;3.43;2.70;;;;;;;20.67;21.50;102792.13;5033180;28;20185;-71
2022/03/06 10:20:06;;;;;;;3.43;2.00;;;;;;;22.98;19.81;102789.81;5033181;28;20190;-74
2022/03/06 10:22:34;;;;;;;2.90;2.10;;;;;;;18.80;22.85;102807.72;5032896;28;20202;-72
2022/03/06 10:25:05;;;;;;;2.63;2.00;;;;;;;14.03;28.31;102825.28;5033308;28;20171;-71
2022/03/06 10:27:45;;;;;;;3.60;2.27;;;;;;;14.22;28.72;102818.31;5033317;28;20200;-72
2022/03/06 10:30:21;;;;;;;2.57;2.37;;;;;;;19.82;22.47;102793.72;5018209;28;20194;-74
2022/03/06 10:32:46;;;;;;;2.77;2.00;;;;;;;15.37;27.29;102818.03;5032851;28;20271;-72
2022/03/06 10:35:12;;;;;;;3.27;2.83;;;;;;;18.07;25.25;102804.56;5036843;28;20206;-75
2022/03/06 10:37:37;;;;;;;3.00;2.20;;;;;;;16.57;25.52;102814.75;5027129;28;20293;-73
2022/03/06 10:40:03;;;;;;;3.90;2.27;;;;;;;20.40;21.45;102794.47;5032954;28;20194;-72
2022/03/06 10:42:28;;;;;;;3.00;2.10;;;;;;;22.04;19.84;102782.66;5032727;28;20217;-73
2022/03/06 10:44:53;;;;;;;2.63;2.00;;;;;;;22.82;20.27;102790.69;5032586;28;20197;-73
2022/03/06 10:47:19;;;;;;;2.67;2.05;;;;;;;23.01;18.87;102791.59;5017186;28;20190;-72
2022/03/06 10:50:01;;;;;;;2.53;2.10;;;;;;;24.98;17.65;102784.66;5032394;28;20201;-74
2022/03/06 10:52:26;;;;;;;2.70;2.05;;;;;;;22.09;20.23;102797.50;5032386;28;20619;-74
2022/03/06 10:54:54;;;;;;;2.87;2.00;;;;;;;18.35;23.02;102805.16;5032407;28;20206;-73
2022/03/06 10:57:25;;;;;;;3.03;2.03;;;;;;;15.80;26.31;102811.63;5032229;28;20201;-71
2022/03/06 10:59:51;;;;;;;3.47;2.47;;;;;;;14.59;28.28;102821.38;5032424;28;20194;-72
2022/03/06 11:02:17;;;;;;;2.47;2.20;;;;;;;17.34;24.85;102807.22;5014738;28;20697;-73
2022/03/06 11:04:46;;;;;;;2.93;2.37;;;;;;;14.49;27.98;102809.00;5040927;28;20185;-71
2022/03/06 11:07:12;;;;;;;2.83;2.00;;;;;;;13.41;29.14;102811.72;5052369;28;20193;-71
2022/03/06 11:09:39;;;;;;;2.60;1.93;;;;;;;19.11;23.33;102794.41;5014909;28;20325;-72
2022/03/06 11:12:06;;;;;;;4.03;2.67;;;;;;;21.79;21.42;102780.84;5030736;28;20193;-72
2022/03/06 11:14:32;;;;;;;2.90;2.53;;;;;;;24.69;18.55;102772.66;5030618;28;20734;-72
2022/03/06 11:16:58;;;;;;;2.75;2.10;;;;;;;20.85;20.66;102781.88;5031711;28;20182;-73
2022/03/06 11:19:25;;;;;;;3.23;1.80;;;;;;;15.81;25.86;102804.78;5014257;28;20194;-74
2022/03/06 11:21:58;;;;;;;4.53;3.30;;;;;;;19.56;23.22;102789.91;5051856;28;20185;-72
2022/03/06 11:24:26;;;;;;;2.10;1.90;;;;;;;16.21;25.74;102799.91;5033095;28;20182;-72
2022/03/06 11:27:20;;;;;;;3.07;2.10;;;;;;;14.08;28.27;102809.19;5032120;28;20191;-71